sensor_id;sensor_type;location;lat;lon;timestamp;temperature;humidity
47520;DHT22;33252;48.122;11.538;2024-02-16T00:00:01;7.50;99.90
47520;DHT22;33252;48.122;11.538;2024-02-16T00:02:26;7.50;99.90
47520;DHT22;33252;48.122;11.538;2024-02-16T00:04:52;7.50;99.90
47520;DHT22;33252;48.122;11.538;2024-02-16T00:07:17;7.60;99.90
47520;DHT22;33252;48.122;11.538;2024-02-16T00:09:43;7.60;99.90
47520;DHT22;33252;48.122;11.538;2024-02-16T00:12:09;7.60;99.90
47520;DHT22;33252;48.122;11.538;2024-02-16T00:14:34;7.40;99.90
47520;DHT22;33252;48.122;11.538;2024-02-16T00:17:00;7.30;99.90
47520;DHT22;33252;48.122;11.538;2024-02-16T00:19:25;7.20;99.90
47520;DHT22;33252;48.122;11.538;2024-02-16T00:21:52;7.10;99.90
47520;DHT22;33252;48.122;11.538;2024-02-16T00:24:17;7.10;99.90
47520;DHT22;33252;48.122;11.538;2024-02-16T00:26:43;7.00;99.90
47520;DHT22;33252;48.122;11.538;2024-02-16T00:29:10;7.00;99.90
47520;DHT22;33252;48.122;11.538;2024-02-16T00:31:36;6.90;99.90
47520;DHT22;33252;48.122;11.538;2024-02-16T00:34:01;6.90;99.90
47520;DHT22;33252;48.122;11.538;2024-02-16T00:36:27;7.00;99.90
47520;DHT22;33252;48.122;11.538;2024-02-16T00:38:53;7.00;99.90
47520;DHT22;33252;48.122;11.538;2024-02-16T00:41:22;7.00;99.90
47520;DHT22;33252;48.122;11.538;2024-02-16T00:43:49;7.00;99.90
47520;DHT22;33252;48.122;11.538;2024-02-16T00:46:16;7.00;99.90
47520;DHT22;33252;48.122;11.538;2024-02-16T00:48:41;7.00;99.90
47520;DHT22;33252;48.122;11.538;2024-02-16T00:51:07;7.00;99.90
47520;DHT22;33252;48.122;11.538;2024-02-16T00:53:32;7.00;99.90
47520;DHT22;33252;48.122;11.538;2024-02-16T00:55:58;7.00;99.90
47520;DHT22;33252;48.122;11.538;2024-02-16T00:58:23;6.90;99.90
47520;DHT22;33252;48.122;11.538;2024-02-16T01:00:49;7.00;99.90
47520;DHT22;33252;48.122;11.538;2024-02-16T01:03:14;7.00;99.90
47520;DHT22;33252;48.122;11.538;2024-02-16T01:05:40;7.00;99.90
47520;DHT22;33252;48.122;11.538;2024-02-16T01:08:06;7.00;99.90
47520;DHT22;33252;48.122;11.538;2024-02-16T01:10:32;7.00;99.90
47520;DHT22;33252;48.122;11.538;2024-02-16T01:12:57;7.00;99.90
47520;DHT22;33252;48.122;11.538;2024-02-16T01:15:23;7.00;99.90
47520;DHT22;33252;48.122;11.538;2024-02-16T01:17:49;7.00;99.90
47520;DHT22;33252;48.122;11.538;2024-02-16T01:20:15;7.00;99.90
47520;DHT22;33252;48.122;11.538;2024-02-16T01:22:41;7.00;99.90
47520;DHT22;33252;48.122;11.538;2024-02-16T01:25:08;7.00;99.90
47520;DHT22;33252;48.122;11.538;2024-02-16T01:27:34;7.00;99.90
47520;DHT22;33252;48.122;11.538;2024-02-16T01:30:00;7.00;99.90
47520;DHT22;33252;48.122;11.538;2024-02-16T01:32:26;7.10;99.90
47520;DHT22;33252;48.122;11.538;2024-02-16T01:34:52;7.10;99.90
47520;DHT22;33252;48.122;11.538;2024-02-16T01:37:17;7.10;99.90
47520;DHT22;33252;48.122;11.538;2024-02-16T01:39:44;7.00;99.90
47520;DHT22;33252;48.122;11.538;2024-02-16T01:42:10;7.00;99.90
47520;DHT22;33252;48.122;11.538;2024-02-16T01:44:36;7.00;99.90
47520;DHT22;33252;48.122;11.538;2024-02-16T01:47:01;7.00;99.90
47520;DHT22;33252;48.122;11.538;2024-02-16T01:49:27;7.00;99.90
47520;DHT22;33252;48.122;11.538;2024-02-16T01:51:53;6.90;99.90
47520;DHT22;33252;48.122;11.538;2024-02-16T01:54:18;6.80;99.90
47520;DHT22;33252;48.122;11.538;2024-02-16T01:56:44;6.80;99.90
47520;DHT22;33252;48.122;11.538;2024-02-16T01:59:10;6.90;99.90
47520;DHT22;33252;48.122;11.538;2024-02-16T02:01:36;6.80;99.90
47520;DHT22;33252;48.122;11.538;2024-02-16T02:04:03;6.80;99.90
47520;DHT22;33252;48.122;11.538;2024-02-16T02:06:29;6.80;99.90
47520;DHT22;33252;48.122;11.538;2024-02-16T02:08:54;6.80;99.90
47520;DHT22;33252;48.122;11.538;2024-02-16T02:11:20;6.90;99.90
47520;DHT22;33252;48.122;11.538;2024-02-16T02:13:45;6.80;99.90
47520;DHT22;33252;48.122;11.538;2024-02-16T02:16:11;6.80;99.90
47520;DHT22;33252;48.122;11.538;2024-02-16T02:18:37;6.70;99.90
47520;DHT22;33252;48.122;11.538;2024-02-16T02:21:03;6.70;99.90
47520;DHT22;33252;48.122;11.538;2024-02-16T02:23:28;6.70;99.90
47520;DHT22;33252;48.122;11.538;2024-02-16T02:25:54;6.70;99.90
47520;DHT22;33252;48.122;11.538;2024-02-16T02:28:19;6.70;99.90
47520;DHT22;33252;48.122;11.538;2024-02-16T02:30:45;6.70;99.90
47520;DHT22;33252;48.122;11.538;2024-02-16T02:33:11;6.60;99.90
47520;DHT22;33252;48.122;11.538;2024-02-16T02:35:38;6.60;99.90
47520;DHT22;33252;48.122;11.538;2024-02-16T02:38:04;6.60;99.90
47520;DHT22;33252;48.122;11.538;2024-02-16T02:40:31;6.60;99.90
47520;DHT22;33252;48.122;11.538;2024-02-16T02:42:57;6.40;99.90
47520;DHT22;33252;48.122;11.538;2024-02-16T02:45:23;6.50;99.90
47520;DHT22;33252;48.122;11.538;2024-02-16T02:47:49;6.40;99.90
47520;DHT22;33252;48.122;11.538;2024-02-16T02:50:15;6.40;99.90
47520;DHT22;33252;48.122;11.538;2024-02-16T02:52:40;6.40;99.90
47520;DHT22;33252;48.122;11.538;2024-02-16T02:55:06;6.40;99.90
47520;DHT22;33252;48.122;11.538;2024-02-16T02:57:32;6.50;99.90
47520;DHT22;33252;48.122;11.538;2024-02-16T03:00:03;6.50;99.90
47520;DHT22;33252;48.122;11.538;2024-02-16T03:02:31;6.40;99.90
47520;DHT22;33252;48.122;11.538;2024-02-16T03:04:56;6.60;99.90
47520;DHT22;33252;48.122;11.538;2024-02-16T03:07:22;6.70;99.90
47520;DHT22;33252;48.122;11.538;2024-02-16T03:09:47;6.60;99.90
47520;DHT22;33252;48.122;11.538;2024-02-16T03:12:13;6.60;99.90
47520;DHT22;33252;48.122;11.538;2024-02-16T03:14:38;6.60;99.90
47520;DHT22;33252;48.122;11.538;2024-02-16T03:17:04;6.50;99.90
47520;DHT22;33252;48.122;11.538;2024-02-16T03:19:29;6.60;99.90
47520;DHT22;33252;48.122;11.538;2024-02-16T03:21:55;6.60;99.90
47520;DHT22;33252;48.122;11.538;2024-02-16T03:24:20;6.60;99.90
47520;DHT22;33252;48.122;11.538;2024-02-16T03:26:47;6.60;99.90
47520;DHT22;33252;48.122;11.538;2024-02-16T03:29:13;6.60;99.90
47520;DHT22;33252;48.122;11.538;2024-02-16T03:31:39;6.60;99.90
47520;DHT22;33252;48.122;11.538;2024-02-16T03:34:04;6.60;99.90
47520;DHT22;33252;48.122;11.538;2024-02-16T03:36:30;6.60;99.90
47520;DHT22;33252;48.122;11.538;2024-02-16T03:38:56;6.60;99.90
47520;DHT22;33252;48.122;11.538;2024-02-16T03:41:23;6.60;99.90
47520;DHT22;33252;48.122;11.538;2024-02-16T03:43:49;6.60;99.90
47520;DHT22;33252;48.122;11.538;2024-02-16T03:46:15;6.60;99.90
47520;DHT22;33252;48.122;11.538;2024-02-16T03:48:41;6.50;99.90
47520;DHT22;33252;48.122;11.538;2024-02-16T03:51:06;6.40;99.90
47520;DHT22;33252;48.122;11.538;2024-02-16T03:53:32;6.40;99.90
47520;DHT22;33252;48.122;11.538;2024-02-16T03:55:58;6.50;99.90
47520;DHT22;33252;48.122;11.538;2024-02-16T03:58:24;6.50;99.90
47520;DHT22;33252;48.122;11.538;2024-02-16T04:00:50;6.60;99.90
47520;DHT22;33252;48.122;11.538;2024-02-16T04:03:16;6.60;99.90
47520;DHT22;33252;48.122;11.538;2024-02-16T04:05:42;6.60;99.90
47520;DHT22;33252;48.122;11.538;2024-02-16T04:08:07;6.60;99.90
47520;DHT22;33252;48.122;11.538;2024-02-16T04:10:33;6.50;99.90
47520;DHT22;33252;48.122;11.538;2024-02-16T04:12:59;6.60;99.90
47520;DHT22;33252;48.122;11.538;2024-02-16T04:15:25;6.50;99.90
47520;DHT22;33252;48.122;11.538;2024-02-16T04:17:51;6.60;99.90
47520;DHT22;33252;48.122;11.538;2024-02-16T04:20:17;6.70;99.90
47520;DHT22;33252;48.122;11.538;2024-02-16T04:22:43;6.70;99.90
47520;DHT22;33252;48.122;11.538;2024-02-16T04:25:08;6.60;99.90
47520;DHT22;33252;48.122;11.538;2024-02-16T04:27:35;6.70;99.90
47520;DHT22;33252;48.122;11.538;2024-02-16T04:30:01;6.60;99.90
47520;DHT22;33252;48.122;11.538;2024-02-16T04:32:26;6.60;99.90
47520;DHT22;33252;48.122;11.538;2024-02-16T04:34:52;6.50;99.90
47520;DHT22;33252;48.122;11.538;2024-02-16T04:37:18;6.50;99.90
47520;DHT22;33252;48.122;11.538;2024-02-16T04:39:47;6.50;99.90
47520;DHT22;33252;48.122;11.538;2024-02-16T04:42:12;6.50;99.90
47520;DHT22;33252;48.122;11.538;2024-02-16T04:44:38;6.60;99.90
47520;DHT22;33252;48.122;11.538;2024-02-16T04:47:04;6.60;99.90
47520;DHT22;33252;48.122;11.538;2024-02-16T04:49:30;6.50;99.90
47520;DHT22;33252;48.122;11.538;2024-02-16T04:51:55;6.60;99.90
47520;DHT22;33252;48.122;11.538;2024-02-16T04:54:21;6.50;99.90
47520;DHT22;33252;48.122;11.538;2024-02-16T04:56:48;6.50;99.90
47520;DHT22;33252;48.122;11.538;2024-02-16T04:59:14;6.60;99.90
47520;DHT22;33252;48.122;11.538;2024-02-16T05:01:40;6.70;99.90
47520;DHT22;33252;48.122;11.538;2024-02-16T05:04:06;6.70;99.90
47520;DHT22;33252;48.122;11.538;2024-02-16T05:06:32;6.70;99.90
47520;DHT22;33252;48.122;11.538;2024-02-16T05:08:57;6.70;99.90
47520;DHT22;33252;48.122;11.538;2024-02-16T05:11:23;6.70;99.90
47520;DHT22;33252;48.122;11.538;2024-02-16T05:13:55;6.70;99.90
47520;DHT22;33252;48.122;11.538;2024-02-16T05:16:20;6.80;99.90
47520;DHT22;33252;48.122;11.538;2024-02-16T05:18:46;6.70;99.90
47520;DHT22;33252;48.122;11.538;2024-02-16T05:21:11;6.70;99.90
47520;DHT22;33252;48.122;11.538;2024-02-16T05:23:37;6.70;99.90
47520;DHT22;33252;48.122;11.538;2024-02-16T05:26:02;6.70;99.90
47520;DHT22;33252;48.122;11.538;2024-02-16T05:28:28;6.70;99.90
47520;DHT22;33252;48.122;11.538;2024-02-16T05:30:54;6.70;99.90
47520;DHT22;33252;48.122;11.538;2024-02-16T05:33:21;6.70;99.90
47520;DHT22;33252;48.122;11.538;2024-02-16T05:35:46;6.80;99.90
47520;DHT22;33252;48.122;11.538;2024-02-16T05:38:16;6.90;99.90
47520;DHT22;33252;48.122;11.538;2024-02-16T05:40:58;7.00;99.90
47520;DHT22;33252;48.122;11.538;2024-02-16T05:43:23;7.00;99.90
47520;DHT22;33252;48.122;11.538;2024-02-16T05:45:49;7.00;99.90
47520;DHT22;33252;48.122;11.538;2024-02-16T05:48:15;6.90;99.90
47520;DHT22;33252;48.122;11.538;2024-02-16T05:50:41;7.10;99.90
47520;DHT22;33252;48.122;11.538;2024-02-16T05:53:07;7.10;99.90
47520;DHT22;33252;48.122;11.538;2024-02-16T05:55:32;7.10;99.90
47520;DHT22;33252;48.122;11.538;2024-02-16T05:57:58;7.10;99.90
47520;DHT22;33252;48.122;11.538;2024-02-16T06:00:23;7.10;99.90
47520;DHT22;33252;48.122;11.538;2024-02-16T06:02:49;7.10;99.90
47520;DHT22;33252;48.122;11.538;2024-02-16T06:05:15;7.20;99.90
47520;DHT22;33252;48.122;11.538;2024-02-16T06:07:40;7.20;99.90
47520;DHT22;33252;48.122;11.538;2024-02-16T06:10:07;7.20;99.90
47520;DHT22;33252;48.122;11.538;2024-02-16T06:12:39;7.20;99.90
47520;DHT22;33252;48.122;11.538;2024-02-16T06:15:05;7.20;99.90
47520;DHT22;33252;48.122;11.538;2024-02-16T06:17:31;7.20;99.90
47520;DHT22;33252;48.122;11.538;2024-02-16T06:19:56;7.20;99.90
47520;DHT22;33252;48.122;11.538;2024-02-16T06:22:22;7.30;99.90
47520;DHT22;33252;48.122;11.538;2024-02-16T06:24:47;7.30;99.90
47520;DHT22;33252;48.122;11.538;2024-02-16T06:27:13;7.30;99.90
47520;DHT22;33252;48.122;11.538;2024-02-16T06:29:39;7.30;99.90
47520;DHT22;33252;48.122;11.538;2024-02-16T06:32:05;7.30;99.90
47520;DHT22;33252;48.122;11.538;2024-02-16T06:34:31;7.40;99.90
47520;DHT22;33252;48.122;11.538;2024-02-16T06:36:57;7.50;99.90
47520;DHT22;33252;48.122;11.538;2024-02-16T06:39:23;7.50;99.90
47520;DHT22;33252;48.122;11.538;2024-02-16T06:41:48;7.40;99.90
47520;DHT22;33252;48.122;11.538;2024-02-16T06:44:16;7.40;99.90
47520;DHT22;33252;48.122;11.538;2024-02-16T06:46:42;7.50;99.90
47520;DHT22;33252;48.122;11.538;2024-02-16T06:49:09;7.50;99.90
47520;DHT22;33252;48.122;11.538;2024-02-16T06:51:34;7.50;99.90
47520;DHT22;33252;48.122;11.538;2024-02-16T06:54:00;7.60;99.90
47520;DHT22;33252;48.122;11.538;2024-02-16T06:56:26;7.60;99.90
47520;DHT22;33252;48.122;11.538;2024-02-16T06:58:51;7.70;99.90
47520;DHT22;33252;48.122;11.538;2024-02-16T07:01:17;7.70;99.90
47520;DHT22;33252;48.122;11.538;2024-02-16T07:03:45;7.80;99.90
47520;DHT22;33252;48.122;11.538;2024-02-16T07:06:12;7.80;99.90
47520;DHT22;33252;48.122;11.538;2024-02-16T07:08:43;7.80;99.90
47520;DHT22;33252;48.122;11.538;2024-02-16T07:11:09;7.80;99.90
47520;DHT22;33252;48.122;11.538;2024-02-16T07:13:38;7.90;99.90
47520;DHT22;33252;48.122;11.538;2024-02-16T07:16:05;7.90;99.90
47520;DHT22;33252;48.122;11.538;2024-02-16T07:18:32;7.90;99.90
47520;DHT22;33252;48.122;11.538;2024-02-16T07:20:58;8.00;99.90
47520;DHT22;33252;48.122;11.538;2024-02-16T07:23:24;8.00;99.90
47520;DHT22;33252;48.122;11.538;2024-02-16T07:25:50;8.10;99.90
47520;DHT22;33252;48.122;11.538;2024-02-16T07:28:15;8.10;99.90
47520;DHT22;33252;48.122;11.538;2024-02-16T07:30:41;8.20;99.90
47520;DHT22;33252;48.122;11.538;2024-02-16T07:33:07;8.20;99.90
47520;DHT22;33252;48.122;11.538;2024-02-16T07:35:33;8.30;99.90
47520;DHT22;33252;48.122;11.538;2024-02-16T07:38:01;8.40;99.90
47520;DHT22;33252;48.122;11.538;2024-02-16T07:40:27;8.40;99.90
47520;DHT22;33252;48.122;11.538;2024-02-16T07:42:53;8.50;99.90
47520;DHT22;33252;48.122;11.538;2024-02-16T07:45:19;8.50;99.90
47520;DHT22;33252;48.122;11.538;2024-02-16T07:47:46;8.60;99.90
47520;DHT22;33252;48.122;11.538;2024-02-16T07:50:11;8.70;99.90
47520;DHT22;33252;48.122;11.538;2024-02-16T07:52:38;8.80;99.90
47520;DHT22;33252;48.122;11.538;2024-02-16T07:55:05;8.80;99.90
47520;DHT22;33252;48.122;11.538;2024-02-16T07:57:31;8.90;99.90
47520;DHT22;33252;48.122;11.538;2024-02-16T07:59:57;8.90;99.90
47520;DHT22;33252;48.122;11.538;2024-02-16T08:02:22;9.00;99.90
47520;DHT22;33252;48.122;11.538;2024-02-16T08:04:51;9.00;99.90
47520;DHT22;33252;48.122;11.538;2024-02-16T08:07:17;9.00;99.90
47520;DHT22;33252;48.122;11.538;2024-02-16T08:09:46;9.10;99.90
47520;DHT22;33252;48.122;11.538;2024-02-16T08:12:12;9.10;99.90
47520;DHT22;33252;48.122;11.538;2024-02-16T08:14:39;9.20;99.90
47520;DHT22;33252;48.122;11.538;2024-02-16T08:17:09;9.30;99.90
47520;DHT22;33252;48.122;11.538;2024-02-16T08:19:36;9.30;99.90
47520;DHT22;33252;48.122;11.538;2024-02-16T08:22:06;9.40;99.90
47520;DHT22;33252;48.122;11.538;2024-02-16T08:24:36;9.50;99.90
47520;DHT22;33252;48.122;11.538;2024-02-16T08:27:02;9.50;99.90
47520;DHT22;33252;48.122;11.538;2024-02-16T08:29:29;9.60;99.70
47520;DHT22;33252;48.122;11.538;2024-02-16T08:31:55;9.60;99.40
47520;DHT22;33252;48.122;11.538;2024-02-16T08:34:21;9.60;99.20
47520;DHT22;33252;48.122;11.538;2024-02-16T08:36:48;9.70;99.10
47520;DHT22;33252;48.122;11.538;2024-02-16T08:39:14;9.70;98.80
47520;DHT22;33252;48.122;11.538;2024-02-16T08:41:40;9.80;98.70
47520;DHT22;33252;48.122;11.538;2024-02-16T08:44:07;9.90;98.80
47520;DHT22;33252;48.122;11.538;2024-02-16T08:46:36;9.90;98.80
47520;DHT22;33252;48.122;11.538;2024-02-16T08:49:02;10.00;98.90
47520;DHT22;33252;48.122;11.538;2024-02-16T08:51:28;10.10;98.30
47520;DHT22;33252;48.122;11.538;2024-02-16T08:53:54;10.20;98.00
47520;DHT22;33252;48.122;11.538;2024-02-16T08:56:20;10.20;98.20
47520;DHT22;33252;48.122;11.538;2024-02-16T08:58:45;10.30;97.70
47520;DHT22;33252;48.122;11.538;2024-02-16T09:01:11;10.30;97.70
47520;DHT22;33252;48.122;11.538;2024-02-16T09:03:37;10.40;97.80
47520;DHT22;33252;48.122;11.538;2024-02-16T09:06:04;10.50;97.60
47520;DHT22;33252;48.122;11.538;2024-02-16T09:08:30;10.50;97.30
47520;DHT22;33252;48.122;11.538;2024-02-16T09:11:01;10.60;97.10
47520;DHT22;33252;48.122;11.538;2024-02-16T09:13:33;10.60;96.30
47520;DHT22;33252;48.122;11.538;2024-02-16T09:15:59;10.70;96.40
47520;DHT22;33252;48.122;11.538;2024-02-16T09:18:25;10.70;95.90
47520;DHT22;33252;48.122;11.538;2024-02-16T09:20:51;10.70;95.70
47520;DHT22;33252;48.122;11.538;2024-02-16T09:23:16;10.90;96.00
47520;DHT22;33252;48.122;11.538;2024-02-16T09:25:42;10.90;96.00
47520;DHT22;33252;48.122;11.538;2024-02-16T09:28:09;10.90;95.90
47520;DHT22;33252;48.122;11.538;2024-02-16T09:30:36;10.90;95.70
47520;DHT22;33252;48.122;11.538;2024-02-16T09:33:01;11.00;96.00
47520;DHT22;33252;48.122;11.538;2024-02-16T09:35:28;11.00;95.90
47520;DHT22;33252;48.122;11.538;2024-02-16T09:37:53;11.00;95.70
47520;DHT22;33252;48.122;11.538;2024-02-16T09:40:19;10.90;95.00
47520;DHT22;33252;48.122;11.538;2024-02-16T09:42:48;11.00;94.80
47520;DHT22;33252;48.122;11.538;2024-02-16T09:45:15;11.00;95.30
47520;DHT22;33252;48.122;11.538;2024-02-16T09:47:43;11.00;94.80
47520;DHT22;33252;48.122;11.538;2024-02-16T09:50:09;11.00;94.90
47520;DHT22;33252;48.122;11.538;2024-02-16T09:52:36;11.00;94.60
47520;DHT22;33252;48.122;11.538;2024-02-16T09:55:03;11.00;94.00
47520;DHT22;33252;48.122;11.538;2024-02-16T09:57:28;11.10;94.20
47520;DHT22;33252;48.122;11.538;2024-02-16T09:59:54;11.20;94.10
47520;DHT22;33252;48.122;11.538;2024-02-16T10:02:20;11.30;93.60
47520;DHT22;33252;48.122;11.538;2024-02-16T10:04:45;11.40;93.20
47520;DHT22;33252;48.122;11.538;2024-02-16T10:07:11;11.50;92.50
47520;DHT22;33252;48.122;11.538;2024-02-16T10:09:36;11.60;91.30
47520;DHT22;33252;48.122;11.538;2024-02-16T10:12:05;11.70;91.30
47520;DHT22;33252;48.122;11.538;2024-02-16T10:14:31;11.80;91.20
47520;DHT22;33252;48.122;11.538;2024-02-16T10:17:04;11.90;90.80
47520;DHT22;33252;48.122;11.538;2024-02-16T10:19:30;12.00;90.40
47520;DHT22;33252;48.122;11.538;2024-02-16T10:22:06;12.10;90.10
47520;DHT22;33252;48.122;11.538;2024-02-16T10:24:32;12.20;90.10
47520;DHT22;33252;48.122;11.538;2024-02-16T10:26:58;12.30;90.10
47520;DHT22;33252;48.122;11.538;2024-02-16T10:29:24;12.30;90.50
47520;DHT22;33252;48.122;11.538;2024-02-16T10:31:52;12.50;90.10
47520;DHT22;33252;48.122;11.538;2024-02-16T10:34:17;12.70;89.20
47520;DHT22;33252;48.122;11.538;2024-02-16T10:36:44;12.70;89.70
47520;DHT22;33252;48.122;11.538;2024-02-16T10:39:10;12.80;89.10
47520;DHT22;33252;48.122;11.538;2024-02-16T10:41:41;12.80;89.30
47520;DHT22;33252;48.122;11.538;2024-02-16T10:44:07;13.00;88.80
47520;DHT22;33252;48.122;11.538;2024-02-16T10:46:33;13.10;88.30
47520;DHT22;33252;48.122;11.538;2024-02-16T10:48:59;13.30;88.20
47520;DHT22;33252;48.122;11.538;2024-02-16T10:51:35;13.20;87.10
47520;DHT22;33252;48.122;11.538;2024-02-16T10:54:03;13.40;88.30
47520;DHT22;33252;48.122;11.538;2024-02-16T10:56:34;13.40;88.20
47520;DHT22;33252;48.122;11.538;2024-02-16T10:59:18;13.40;86.70
47520;DHT22;33252;48.122;11.538;2024-02-16T11:01:44;13.40;87.20
47520;DHT22;33252;48.122;11.538;2024-02-16T11:04:17;13.40;87.40
47520;DHT22;33252;48.122;11.538;2024-02-16T11:06:52;13.50;87.50
47520;DHT22;33252;48.122;11.538;2024-02-16T11:09:38;13.70;86.30
47520;DHT22;33252;48.122;11.538;2024-02-16T11:12:05;13.90;86.10
47520;DHT22;33252;48.122;11.538;2024-02-16T11:14:38;14.00;86.40
47520;DHT22;33252;48.122;11.538;2024-02-16T11:17:21;14.10;85.50
47520;DHT22;33252;48.122;11.538;2024-02-16T11:19:48;14.30;84.90
47520;DHT22;33252;48.122;11.538;2024-02-16T11:22:17;14.30;83.90
47520;DHT22;33252;48.122;11.538;2024-02-16T11:24:45;14.40;84.80
47520;DHT22;33252;48.122;11.538;2024-02-16T11:27:11;14.50;85.40
47520;DHT22;33252;48.122;11.538;2024-02-16T11:29:38;14.60;84.90
47520;DHT22;33252;48.122;11.538;2024-02-16T11:32:05;14.70;83.70
47520;DHT22;33252;48.122;11.538;2024-02-16T11:34:32;14.70;83.70
47520;DHT22;33252;48.122;11.538;2024-02-16T11:36:59;14.70;83.70
47520;DHT22;33252;48.122;11.538;2024-02-16T11:39:26;14.70;84.50
47520;DHT22;33252;48.122;11.538;2024-02-16T11:42:02;14.70;84.50
47520;DHT22;33252;48.122;11.538;2024-02-16T11:44:29;14.90;84.70
47520;DHT22;33252;48.122;11.538;2024-02-16T11:46:55;14.90;84.50
47520;DHT22;33252;48.122;11.538;2024-02-16T11:49:21;14.90;84.70
47520;DHT22;33252;48.122;11.538;2024-02-16T11:51:47;15.10;84.90
47520;DHT22;33252;48.122;11.538;2024-02-16T11:54:13;15.30;83.30
47520;DHT22;33252;48.122;11.538;2024-02-16T11:56:38;15.40;83.60
47520;DHT22;33252;48.122;11.538;2024-02-16T11:59:07;15.70;82.90
47520;DHT22;33252;48.122;11.538;2024-02-16T12:01:33;15.70;82.80
47520;DHT22;33252;48.122;11.538;2024-02-16T12:03:59;15.80;83.20
47520;DHT22;33252;48.122;11.538;2024-02-16T12:06:25;16.00;83.80
47520;DHT22;33252;48.122;11.538;2024-02-16T12:08:51;16.10;82.40
47520;DHT22;33252;48.122;11.538;2024-02-16T12:11:19;16.30;82.90
47520;DHT22;33252;48.122;11.538;2024-02-16T12:13:45;16.40;82.60
47520;DHT22;33252;48.122;11.538;2024-02-16T12:16:11;16.60;82.50
47520;DHT22;33252;48.122;11.538;2024-02-16T12:18:36;16.50;82.10
47520;DHT22;33252;48.122;11.538;2024-02-16T12:21:04;16.90;82.40
47520;DHT22;33252;48.122;11.538;2024-02-16T12:23:31;17.00;81.60
47520;DHT22;33252;48.122;11.538;2024-02-16T12:25:58;17.00;82.00
47520;DHT22;33252;48.122;11.538;2024-02-16T12:28:25;16.90;81.80
47520;DHT22;33252;48.122;11.538;2024-02-16T12:30:52;16.70;82.10
47520;DHT22;33252;48.122;11.538;2024-02-16T12:33:18;16.70;82.80
47520;DHT22;33252;48.122;11.538;2024-02-16T12:35:43;16.70;82.80
47520;DHT22;33252;48.122;11.538;2024-02-16T12:38:10;16.60;83.30
47520;DHT22;33252;48.122;11.538;2024-02-16T12:40:36;16.70;82.50
47520;DHT22;33252;48.122;11.538;2024-02-16T12:43:02;16.70;82.60
47520;DHT22;33252;48.122;11.538;2024-02-16T12:45:27;16.70;82.50
47520;DHT22;33252;48.122;11.538;2024-02-16T12:47:53;16.70;82.70
47520;DHT22;33252;48.122;11.538;2024-02-16T12:50:18;16.80;82.10
47520;DHT22;33252;48.122;11.538;2024-02-16T12:52:44;16.90;82.20
47520;DHT22;33252;48.122;11.538;2024-02-16T12:55:11;16.90;82.80
47520;DHT22;33252;48.122;11.538;2024-02-16T12:57:37;16.90;82.70
47520;DHT22;33252;48.122;11.538;2024-02-16T13:00:04;16.90;83.30
47520;DHT22;33252;48.122;11.538;2024-02-16T13:02:30;17.00;82.70
47520;DHT22;33252;48.122;11.538;2024-02-16T13:04:56;17.10;82.20
47520;DHT22;33252;48.122;11.538;2024-02-16T13:07:22;17.10;82.50
47520;DHT22;33252;48.122;11.538;2024-02-16T13:09:47;17.20;81.40
47520;DHT22;33252;48.122;11.538;2024-02-16T13:12:16;17.20;81.60
47520;DHT22;33252;48.122;11.538;2024-02-16T13:14:41;17.30;81.10
47520;DHT22;33252;48.122;11.538;2024-02-16T13:17:07;17.40;81.20
47520;DHT22;33252;48.122;11.538;2024-02-16T13:19:32;17.30;82.00
47520;DHT22;33252;48.122;11.538;2024-02-16T13:21:58;17.10;81.80
47520;DHT22;33252;48.122;11.538;2024-02-16T13:24:23;17.00;81.70
47520;DHT22;33252;48.122;11.538;2024-02-16T13:26:50;17.00;82.00
47520;DHT22;33252;48.122;11.538;2024-02-16T13:29:15;17.20;82.10
47520;DHT22;33252;48.122;11.538;2024-02-16T13:31:41;17.30;82.00
47520;DHT22;33252;48.122;11.538;2024-02-16T13:34:08;17.60;81.90
47520;DHT22;33252;48.122;11.538;2024-02-16T13:36:33;17.60;81.70
47520;DHT22;33252;48.122;11.538;2024-02-16T13:38:59;17.90;81.80
47520;DHT22;33252;48.122;11.538;2024-02-16T13:41:25;17.80;82.10
47520;DHT22;33252;48.122;11.538;2024-02-16T13:43:51;18.20;81.10
47520;DHT22;33252;48.122;11.538;2024-02-16T13:46:17;17.80;81.60
47520;DHT22;33252;48.122;11.538;2024-02-16T13:48:43;17.70;82.60
47520;DHT22;33252;48.122;11.538;2024-02-16T13:51:08;17.50;82.00
47520;DHT22;33252;48.122;11.538;2024-02-16T13:53:35;17.60;81.90
47520;DHT22;33252;48.122;11.538;2024-02-16T13:56:01;17.50;82.60
47520;DHT22;33252;48.122;11.538;2024-02-16T13:58:29;17.10;82.60
47520;DHT22;33252;48.122;11.538;2024-02-16T14:00:55;16.90;82.90
47520;DHT22;33252;48.122;11.538;2024-02-16T14:03:21;16.90;83.10
47520;DHT22;33252;48.122;11.538;2024-02-16T14:05:47;16.90;83.20
47520;DHT22;33252;48.122;11.538;2024-02-16T14:08:12;16.80;83.40
47520;DHT22;33252;48.122;11.538;2024-02-16T14:10:40;16.70;84.10
47520;DHT22;33252;48.122;11.538;2024-02-16T14:13:06;16.50;84.80
47520;DHT22;33252;48.122;11.538;2024-02-16T14:15:31;16.50;84.90
47520;DHT22;33252;48.122;11.538;2024-02-16T14:17:57;16.40;85.60
47520;DHT22;33252;48.122;11.538;2024-02-16T14:20:23;16.30;85.70
47520;DHT22;33252;48.122;11.538;2024-02-16T14:22:49;16.30;86.00
47520;DHT22;33252;48.122;11.538;2024-02-16T14:25:15;16.30;85.80
47520;DHT22;33252;48.122;11.538;2024-02-16T14:27:40;16.40;85.90
47520;DHT22;33252;48.122;11.538;2024-02-16T14:30:11;16.60;85.40
47520;DHT22;33252;48.122;11.538;2024-02-16T14:32:36;16.80;85.40
47520;DHT22;33252;48.122;11.538;2024-02-16T14:35:02;16.70;85.10
47520;DHT22;33252;48.122;11.538;2024-02-16T14:37:28;16.80;84.90
47520;DHT22;33252;48.122;11.538;2024-02-16T14:39:54;17.00;84.30
47520;DHT22;33252;48.122;11.538;2024-02-16T14:42:25;17.00;84.60
47520;DHT22;33252;48.122;11.538;2024-02-16T14:44:50;17.10;84.40
47520;DHT22;33252;48.122;11.538;2024-02-16T14:47:16;17.30;84.00
47520;DHT22;33252;48.122;11.538;2024-02-16T14:49:42;17.30;84.20
47520;DHT22;33252;48.122;11.538;2024-02-16T14:52:08;17.30;83.90
47520;DHT22;33252;48.122;11.538;2024-02-16T14:54:35;17.30;83.70
47520;DHT22;33252;48.122;11.538;2024-02-16T14:57:00;17.20;84.20
47520;DHT22;33252;48.122;11.538;2024-02-16T14:59:26;17.00;84.90
47520;DHT22;33252;48.122;11.538;2024-02-16T15:01:53;16.90;84.90
47520;DHT22;33252;48.122;11.538;2024-02-16T15:04:18;16.70;85.70
47520;DHT22;33252;48.122;11.538;2024-02-16T15:06:44;16.60;86.00
47520;DHT22;33252;48.122;11.538;2024-02-16T15:09:10;16.40;86.50
47520;DHT22;33252;48.122;11.538;2024-02-16T15:11:36;16.40;87.10
47520;DHT22;33252;48.122;11.538;2024-02-16T15:14:03;16.30;87.00
47520;DHT22;33252;48.122;11.538;2024-02-16T15:16:29;16.30;87.20
47520;DHT22;33252;48.122;11.538;2024-02-16T15:18:54;16.20;87.70